KFTY/FTY METAR and TAF weather

Enter ICAO airport designator
Station Type Date Time Source
KFTY METAR 2020/07/12 18:53 UTC NOAA

KFTY 121853Z 31007KT 10SM FEW040 FEW110 29/20 A2988 RMK AO2 SLP108 T02940200


Station Type Date Time Source
KFTY Decoded METAR 2020/07/12 18:53 UTC NOAA

ATLANTA FULTON COUNTY AIRPORT , GA, United States (KFTY) 33-47N 84-31W 263M
Jul 12, 2020 - 02:53 PM EDT / 2020.07.12 1853 UTC
Wind: from the NW (310 degrees) at 8 MPH (7 KT):0
Visibility: 10 mile(s):0
Sky conditions: mostly clear
Temperature: 84.9 F (29.4 C)
Dew Point: 68.0 F (20.0 C)
Relative Humidity: 57%
Pressure (altimeter): 29.88 in. Hg (1011 hPa)
ob: KFTY 121853Z 31007KT 10SM FEW040 FEW110 29/20 A2988 RMK AO2 SLP108 T02940200
cycle: 19

Station Type Date Time Source
KFTY TAF 2020/07/12 18:48 UTC NOAA

TAF KFTY 121746Z 1218/1318 30008KT P6SM FEW040 BKN200
FM121900 30007KT P6SM VCSH SCT050 SCT120
TEMPO 1220/1224 5SM SHRA BKN040
FM130200 24003KT P6SM SCT070 SCT250
FM130900 29003KT P6SM SCT020
FM131500 30006KT P6SM SCT045

Example: see airport list